createdAt,value
2018-03-19T00:02:13.020Z,21.73
2018-03-19T00:04:42.235Z,24.97
2018-03-19T00:07:11.309Z,23.70
2018-03-19T00:09:41.165Z,24.03
2018-03-19T00:12:10.278Z,21.67
2018-03-19T00:14:39.365Z,23.43
2018-03-19T00:17:08.483Z,21.30
2018-03-19T00:19:37.574Z,22.83
2018-03-19T00:22:06.669Z,21.03
2018-03-19T00:24:35.758Z,27.43
2018-03-19T00:27:04.864Z,22.13
2018-03-19T00:29:33.989Z,22.23
2018-03-19T00:32:03.842Z,22.93
2018-03-19T00:34:32.950Z,23.23
2018-03-19T00:37:02.052Z,24.07
2018-03-19T00:39:31.161Z,24.03
2018-03-19T00:42:00.253Z,24.93
2018-03-19T00:44:29.379Z,23.83
2018-03-19T00:46:59.234Z,22.10
2018-03-19T00:49:28.350Z,22.63
2018-03-19T00:51:57.458Z,20.27
2018-03-19T00:54:26.558Z,22.10
2018-03-19T00:56:55.648Z,26.60
2018-03-19T00:59:24.769Z,20.87
2018-03-19T01:01:54.621Z,28.93
2018-03-19T01:04:24.504Z,21.10
2018-03-19T01:06:54.371Z,20.30
2018-03-19T01:09:23.449Z,23.10
2018-03-19T01:11:52.567Z,29.07
2018-03-19T01:14:21.655Z,19.83
2018-03-19T01:16:50.766Z,23.23
2018-03-19T01:19:19.857Z,28.60
2018-03-19T01:21:48.995Z,25.20
2018-03-19T01:24:18.851Z,23.90
2018-03-19T01:26:47.969Z,22.17
2018-03-19T01:29:17.046Z,20.63
2018-03-19T01:31:46.151Z,27.20
2018-03-19T01:34:15.248Z,32.50
2018-03-19T01:36:44.326Z,25.50
2018-03-19T01:39:13.439Z,23.07
2018-03-19T01:41:42.526Z,23.13
2018-03-19T01:44:12.415Z,23.40
2018-03-19T01:46:41.503Z,24.67
2018-03-19T01:49:10.612Z,29.77
2018-03-19T01:51:39.696Z,27.30
2018-03-19T01:54:08.798Z,22.57
2018-03-19T01:56:37.894Z,19.67
2018-03-19T01:59:07.017Z,19.83
2018-03-19T02:01:36.107Z,23.47
2018-03-19T02:04:05.226Z,28.00
2018-03-19T02:06:34.328Z,23.23
2018-03-19T02:09:03.430Z,26.63
2018-03-19T02:11:32.528Z,27.67
2018-03-19T02:14:01.618Z,24.90
2018-03-19T02:16:30.722Z,20.83
2018-03-19T02:19:00.626Z,27.53
2018-03-19T02:21:29.713Z,22.47
2018-03-19T02:23:58.810Z,19.17
2018-03-19T02:26:27.922Z,24.97
2018-03-19T02:28:57.011Z,26.23
2018-03-19T02:31:26.118Z,22.33
2018-03-19T02:33:55.198Z,26.83
2018-03-19T02:36:24.318Z,23.87
2018-03-19T02:38:54.177Z,23.53
2018-03-19T02:41:23.254Z,25.43
2018-03-19T02:43:52.370Z,28.50
2018-03-19T02:46:21.481Z,28.23
2018-03-19T02:48:50.578Z,20.67
2018-03-19T02:51:19.695Z,22.73
2018-03-19T02:53:48.811Z,25.03
2018-03-19T02:56:19.438Z,22.27
2018-03-19T02:58:49.334Z,19.80
2018-03-19T03:01:18.424Z,20.67
2018-03-19T03:03:47.535Z,23.50
2018-03-19T03:06:16.666Z,29.03
2018-03-19T03:08:45.771Z,20.57
2018-03-19T03:11:14.873Z,28.30
2018-03-19T03:13:43.962Z,22.60
2018-03-19T03:16:13.078Z,19.67
2018-03-19T03:18:42.196Z,23.73
2018-03-19T03:21:11.352Z,23.43
2018-03-19T03:23:40.406Z,23.70
2018-03-19T03:26:10.262Z,24.97
2018-03-19T03:28:39.377Z,31.50
2018-03-19T03:31:08.466Z,28.13
2018-03-19T03:33:37.562Z,22.30
2018-03-19T03:36:06.676Z,25.10
2018-03-19T03:38:35.770Z,23.93
2018-03-19T03:41:04.857Z,24.30
2018-03-19T03:43:33.961Z,24.60
2018-03-19T03:46:03.063Z,25.40
2018-03-19T03:48:32.162Z,26.50
2018-03-19T03:51:01.268Z,27.00
2018-03-19T03:53:30.385Z,22.83
2018-03-19T03:56:00.261Z,29.77
2018-03-19T03:58:29.350Z,25.20
2018-03-19T04:00:58.476Z,22.83
2018-03-19T04:03:27.556Z,24.60
2018-03-19T04:05:56.658Z,23.47
2018-03-19T04:08:25.745Z,23.67
2018-03-19T04:10:54.876Z,24.50
2018-03-19T04:13:24.719Z,24.23
2018-03-19T04:15:53.827Z,26.93
2018-03-19T04:18:22.910Z,31.47
2018-03-19T04:20:52.018Z,42.33
2018-03-19T04:23:21.119Z,20.37
2018-03-19T04:25:50.202Z,28.70
2018-03-19T04:28:19.323Z,26.97
2018-03-19T04:30:48.395Z,24.80
2018-03-19T04:33:17.504Z,24.70
2018-03-19T04:35:46.627Z,22.53
2018-03-19T04:38:15.729Z,26.00
2018-03-19T04:40:44.830Z,23.20
2018-03-19T04:43:13.937Z,20.50
2018-03-19T04:45:43.786Z,20.70
2018-03-19T04:48:12.886Z,23.23
2018-03-19T04:50:41.982Z,24.80
2018-03-19T04:53:11.098Z,32.90
2018-03-19T04:55:40.193Z,26.57
2018-03-19T04:58:09.307Z,30.20
2018-03-19T05:00:38.415Z,25.07
2018-03-19T05:03:07.517Z,27.87
2018-03-19T05:05:36.619Z,25.70
2018-03-19T05:08:06.471Z,29.80
2018-03-19T05:10:35.576Z,28.17
2018-03-19T05:13:04.667Z,27.87
2018-03-19T05:15:33.783Z,21.23
2018-03-19T05:18:02.879Z,28.23
2018-03-19T05:20:31.965Z,24.90
2018-03-19T05:23:01.074Z,28.97
2018-03-19T05:25:30.167Z,26.87
2018-03-19T05:27:59.281Z,25.73
2018-03-19T05:30:28.370Z,31.60
2018-03-19T05:32:57.477Z,25.20
2018-03-19T05:35:26.595Z,26.37
2018-03-19T05:37:56.475Z,30.97
2018-03-19T05:40:25.602Z,19.50
2018-03-19T05:42:55.470Z,27.50
2018-03-19T05:45:24.574Z,24.37
2018-03-19T05:47:53.682Z,31.33
2018-03-19T05:50:22.777Z,24.43
2018-03-19T05:52:51.892Z,22.07
2018-03-19T05:55:20.980Z,29.70
2018-03-19T05:57:50.087Z,22.53
2018-03-19T06:00:19.978Z,26.47
2018-03-19T06:02:49.081Z,24.60
2018-03-19T06:05:18.193Z,31.20
2018-03-19T06:07:47.277Z,25.47
2018-03-19T06:10:16.399Z,23.40
2018-03-19T06:12:46.263Z,30.97
2018-03-19T06:15:15.362Z,26.80
2018-03-19T06:17:44.452Z,30.23
2018-03-19T06:20:13.553Z,36.60
2018-03-19T06:22:42.663Z,27.03
2018-03-19T06:25:11.796Z,29.43
2018-03-19T06:27:41.643Z,25.97
2018-03-19T06:30:10.746Z,30.47
2018-03-19T06:32:39.848Z,23.67
2018-03-19T06:35:08.974Z,27.03
2018-03-19T06:37:38.071Z,32.57
2018-03-19T06:40:07.936Z,27.07
2018-03-19T06:42:37.065Z,25.83
2018-03-19T06:45:06.177Z,30.80
2018-03-19T06:47:35.288Z,28.50
2018-03-19T06:50:04.393Z,28.90
2018-03-19T06:52:34.302Z,23.83
2018-03-19T06:55:03.408Z,28.10
2018-03-19T06:57:34.112Z,24.40
2018-03-19T07:00:03.241Z,27.80
2018-03-19T07:02:33.086Z,27.30
2018-03-19T07:05:02.204Z,28.03
2018-03-19T07:07:32.110Z,26.00
2018-03-19T07:10:01.203Z,38.40
2018-03-19T07:12:30.317Z,27.50
2018-03-19T07:14:59.461Z,27.60
2018-03-19T07:17:28.560Z,26.87
2018-03-19T07:19:57.675Z,38.97
2018-03-19T07:22:26.779Z,29.40
2018-03-19T07:24:55.882Z,29.53
2018-03-19T07:27:24.966Z,29.60
2018-03-19T07:29:54.098Z,26.40
2018-03-19T07:32:23.201Z,32.13
2018-03-19T07:34:52.311Z,30.17
2018-03-19T07:37:22.219Z,23.83
2018-03-19T07:39:51.311Z,29.47
2018-03-19T07:42:21.161Z,26.63
2018-03-19T07:44:50.284Z,34.57
2018-03-19T07:47:19.378Z,29.43
2018-03-19T07:49:48.478Z,33.73
2018-03-19T07:52:18.449Z,30.13
2018-03-19T07:54:47.572Z,28.83
2018-03-19T07:57:17.111Z,32.00
2018-03-19T07:59:46.189Z,27.53
2018-03-19T08:02:15.300Z,36.10
2018-03-19T08:04:44.407Z,28.67
2018-03-19T08:07:13.494Z,30.93
2018-03-19T08:09:42.623Z,35.27
2018-03-19T08:12:12.488Z,27.90
2018-03-19T08:14:41.587Z,27.63
2018-03-19T08:17:10.678Z,34.23
2018-03-19T08:19:39.816Z,26.97
2018-03-19T08:22:08.918Z,40.40
2018-03-19T08:24:38.799Z,33.77
2018-03-19T08:27:07.875Z,32.57
2018-03-19T08:29:36.993Z,31.27
2018-03-19T08:32:06.115Z,28.60
2018-03-19T08:34:35.206Z,32.77
2018-03-19T08:37:05.078Z,29.00
2018-03-19T08:39:34.246Z,36.03
2018-03-19T08:42:03.349Z,27.37
2018-03-19T08:44:33.243Z,29.20
2018-03-19T08:47:03.145Z,29.53
2018-03-19T08:49:32.226Z,27.77
2018-03-19T08:52:01.347Z,32.93
2018-03-19T08:54:30.418Z,37.20
2018-03-19T08:56:59.550Z,37.97
2018-03-19T08:59:29.426Z,30.53
2018-03-19T09:01:58.533Z,28.27
2018-03-19T09:04:27.619Z,38.00
2018-03-19T09:06:56.710Z,27.87
2018-03-19T09:09:25.816Z,30.80
2018-03-19T09:11:54.934Z,28.57
2018-03-19T09:14:24.818Z,32.03
2018-03-19T09:16:53.925Z,29.50
2018-03-19T09:19:23.042Z,31.17
2018-03-19T09:21:52.890Z,26.63
2018-03-19T09:24:21.988Z,34.77
2018-03-19T09:26:51.099Z,31.63
2018-03-19T09:29:20.201Z,34.03
2018-03-19T09:31:49.350Z,25.93
2018-03-19T09:34:19.198Z,24.87
2018-03-19T09:36:48.316Z,34.00
2018-03-19T09:39:17.393Z,34.97
2018-03-19T09:41:46.511Z,23.57
2018-03-19T09:44:15.614Z,27.90
2018-03-19T09:46:44.702Z,29.13
2018-03-19T09:49:13.815Z,32.60
2018-03-19T09:51:42.918Z,32.40
2018-03-19T09:54:12.826Z,35.67
2018-03-19T09:56:41.931Z,30.73
2018-03-19T09:59:11.025Z,27.43
2018-03-19T10:01:40.154Z,32.30
2018-03-19T10:04:09.265Z,32.83
2018-03-19T10:06:38.390Z,33.77
2018-03-19T10:09:07.497Z,36.93
2018-03-19T10:11:36.604Z,32.00
2018-03-19T10:14:06.466Z,37.30
2018-03-19T10:16:35.578Z,30.77
2018-03-19T10:19:04.667Z,31.37
2018-03-19T10:21:33.813Z,39.93
2018-03-19T10:24:02.910Z,29.93
2018-03-19T10:26:32.774Z,30.00
2018-03-19T10:29:01.890Z,38.53
2018-03-19T10:31:31.042Z,35.37
2018-03-19T10:34:00.165Z,39.53
2018-03-19T10:36:29.274Z,27.50
2018-03-19T10:38:58.405Z,28.80
2018-03-19T10:41:28.264Z,34.93
2018-03-19T10:43:57.410Z,30.23
2018-03-19T10:46:26.501Z,39.37
2018-03-19T10:48:55.626Z,32.40
2018-03-19T10:51:25.499Z,30.77
2018-03-19T10:53:54.609Z,38.33
2018-03-19T10:56:23.715Z,47.63
2018-03-19T10:58:52.826Z,36.47
2018-03-19T11:01:28.300Z,31.13
2018-03-19T11:04:02.070Z,29.30
2018-03-19T11:19:59.328Z,33.43
2018-03-19T11:22:28.368Z,32.80
2018-03-19T11:24:58.378Z,33.00
2018-03-19T11:27:27.490Z,29.80
2018-03-19T11:29:56.618Z,35.47
2018-03-19T11:32:26.483Z,32.77
2018-03-19T11:34:55.577Z,31.10
2018-03-19T11:37:24.684Z,27.93
2018-03-19T11:39:54.665Z,35.13
2018-03-19T11:42:23.776Z,31.10
2018-03-19T11:44:53.642Z,29.77
2018-03-19T11:47:23.614Z,32.93
2018-03-19T11:49:52.703Z,37.50
2018-03-19T11:52:21.777Z,36.37
2018-03-19T11:54:50.900Z,34.07
2018-03-19T11:57:20.020Z,30.53
2018-03-19T11:59:49.122Z,32.10
2018-03-19T12:02:18.244Z,29.33
2018-03-19T12:04:48.129Z,35.67
2018-03-19T12:07:17.226Z,34.47
2018-03-19T12:09:46.342Z,34.30
2018-03-19T12:12:15.445Z,30.37
2018-03-19T12:14:45.305Z,36.93
2018-03-19T12:17:14.414Z,35.80
2018-03-19T12:19:43.492Z,33.23
2018-03-19T12:22:12.611Z,43.10
2018-03-19T12:24:41.840Z,35.93
2018-03-19T12:27:10.945Z,36.77
2018-03-19T12:29:40.832Z,35.00
2018-03-19T12:32:09.909Z,32.73
2018-03-19T12:34:39.024Z,36.07
2018-03-19T12:37:08.126Z,36.77
2018-03-19T12:39:37.240Z,41.80
2018-03-19T12:42:07.113Z,39.47
2018-03-19T12:44:36.223Z,35.50
2018-03-19T12:47:05.331Z,39.10
2018-03-19T12:49:34.447Z,38.83
2018-03-19T12:52:04.335Z,33.73
2018-03-19T12:54:33.440Z,39.40
2018-03-19T12:57:02.564Z,38.13
2018-03-19T12:59:31.669Z,36.03
2018-03-19T13:02:00.784Z,45.57
2018-03-19T13:04:29.901Z,38.90
2018-03-19T13:06:58.994Z,35.47
2018-03-19T13:09:28.110Z,42.00
2018-03-19T13:11:57.208Z,43.13
2018-03-19T13:14:26.310Z,48.63
2018-03-19T13:16:55.418Z,39.60
2018-03-19T13:19:24.508Z,32.40
2018-03-19T13:21:54.384Z,37.97
2018-03-19T13:24:23.478Z,42.00
2018-03-19T13:26:52.632Z,41.60
2018-03-19T13:29:22.517Z,38.60
2018-03-19T13:31:51.636Z,41.93
2018-03-19T13:34:21.501Z,42.27
2018-03-19T13:36:50.635Z,33.83
2018-03-19T13:39:19.714Z,32.27
2018-03-19T13:41:48.839Z,48.83
2018-03-19T13:44:18.703Z,42.27
2018-03-19T13:46:47.821Z,37.30
2018-03-19T13:49:16.925Z,34.43
2018-03-19T13:51:46.044Z,33.60
2018-03-19T13:54:15.942Z,43.30
2018-03-19T13:56:45.035Z,39.17
2018-03-19T13:59:14.155Z,31.83
2018-03-19T14:01:44.012Z,35.90
2018-03-19T14:04:13.127Z,29.73
2018-03-19T14:06:42.206Z,37.30
2018-03-19T14:09:11.355Z,33.90
2018-03-19T14:11:41.213Z,36.43
2018-03-19T14:14:10.321Z,35.03
2018-03-19T14:16:40.939Z,38.03
2018-03-19T14:19:10.089Z,33.50
2018-03-19T14:21:39.950Z,35.30
2018-03-19T14:24:09.052Z,37.83
2018-03-19T14:26:38.169Z,41.20
2018-03-19T14:29:08.042Z,37.50
2018-03-19T14:31:37.126Z,35.40
2018-03-19T14:34:06.323Z,36.87
2018-03-19T14:36:35.381Z,36.40
2018-03-19T14:39:04.505Z,46.07
2018-03-19T14:41:33.656Z,42.90
2018-03-19T14:44:03.529Z,39.53
2018-03-19T14:46:32.627Z,32.90
2018-03-19T14:49:01.750Z,31.10
2018-03-19T14:51:30.874Z,43.37
2018-03-19T14:54:00.009Z,41.63
2018-03-19T14:56:29.144Z,43.93
2018-03-19T14:58:58.273Z,29.87
2018-03-19T15:01:28.169Z,31.27
2018-03-19T15:03:58.251Z,34.70
2018-03-19T15:06:27.376Z,29.20
2018-03-19T15:08:56.485Z,36.40
2018-03-19T15:11:25.617Z,32.40
2018-03-19T15:13:54.739Z,37.43
2018-03-19T15:16:23.899Z,34.80
2018-03-19T15:18:53.781Z,35.53
2018-03-19T15:21:22.893Z,32.13
2018-03-19T15:23:53.935Z,32.00
2018-03-19T15:26:23.067Z,35.70
2018-03-19T15:28:52.182Z,32.47
2018-03-19T15:31:21.325Z,30.40
2018-03-19T15:33:50.443Z,33.57
2018-03-19T15:36:20.307Z,36.57
2018-03-19T15:38:49.440Z,35.00
2018-03-19T15:41:18.556Z,26.00
2018-03-19T15:43:48.854Z,41.43
2018-03-19T15:46:17.959Z,29.63
2018-03-19T15:48:47.859Z,35.73
2018-03-19T15:51:16.970Z,33.90
2018-03-19T15:53:46.841Z,34.10
2018-03-19T15:56:15.971Z,30.97
2018-03-19T15:58:45.090Z,42.20
2018-03-19T16:01:15.605Z,32.73
2018-03-19T16:03:44.684Z,35.17
2018-03-19T16:06:13.811Z,36.97
2018-03-19T16:08:44.715Z,35.53
2018-03-19T16:11:13.876Z,32.93
2018-03-19T16:13:43.894Z,27.40
2018-03-19T16:16:13.041Z,43.93
2018-03-19T16:18:42.855Z,33.97
2018-03-19T16:21:12.015Z,39.70
2018-03-19T16:23:41.127Z,34.10
2018-03-19T16:26:12.006Z,37.93
2018-03-19T16:28:42.737Z,36.43
2018-03-19T16:31:12.593Z,34.83
2018-03-19T16:33:42.563Z,27.47
2018-03-19T16:36:12.432Z,28.40
2018-03-19T16:38:41.556Z,27.90
2018-03-19T16:41:12.162Z,31.60
2018-03-19T16:43:41.294Z,29.00
2018-03-19T16:46:10.408Z,28.60
2018-03-19T16:48:40.302Z,35.47
2018-03-19T16:51:09.395Z,30.00
2018-03-19T16:53:38.508Z,32.47
2018-03-19T16:56:08.406Z,28.33
2018-03-19T16:58:37.500Z,26.30
2018-03-19T17:01:06.628Z,32.47
2018-03-19T17:03:35.747Z,35.23
2018-03-19T17:06:04.921Z,29.97
2018-03-19T17:08:33.996Z,29.33
2018-03-19T17:11:03.892Z,31.00
2018-03-19T17:13:32.999Z,23.93
2018-03-19T17:16:02.146Z,31.90
2018-03-19T17:18:31.252Z,32.33
2018-03-19T17:21:00.424Z,30.93
2018-03-19T17:23:29.548Z,36.27
2018-03-19T17:26:00.824Z,36.27
2018-03-19T17:28:29.937Z,35.33
2018-03-19T17:30:59.828Z,34.13
2018-03-19T17:33:28.938Z,35.83
2018-03-19T17:35:58.055Z,32.03
2018-03-19T17:38:27.967Z,32.57
2018-03-19T17:40:57.831Z,31.60
2018-03-19T17:43:26.981Z,35.03
2018-03-19T17:45:56.838Z,29.97
2018-03-19T17:48:25.987Z,27.10
2018-03-19T17:50:55.918Z,30.07
2018-03-19T17:53:25.778Z,29.30
2018-03-19T18:08:44.306Z,29.80
2018-03-19T18:11:13.447Z,32.13
2018-03-19T18:13:43.327Z,45.97
2018-03-19T18:16:12.457Z,40.10
2018-03-19T18:18:43.235Z,42.27
2018-03-19T18:21:12.381Z,38.10
2018-03-19T18:23:41.502Z,35.43
2018-03-19T18:26:11.386Z,33.73
2018-03-19T18:28:40.494Z,31.43
2018-03-19T18:31:09.622Z,34.00
2018-03-19T18:33:39.637Z,46.67
2018-03-19T18:36:08.736Z,37.00
2018-03-19T18:38:37.848Z,38.27
2018-03-19T18:41:06.957Z,33.43
2018-03-19T18:43:36.058Z,34.73
2018-03-19T18:46:05.167Z,46.53
2018-03-19T18:48:34.296Z,33.47
2018-03-19T18:51:04.180Z,32.00
2018-03-19T18:53:34.809Z,36.63
2018-03-19T18:56:04.675Z,39.50
2018-03-19T18:58:34.558Z,36.03
2018-03-19T19:01:03.678Z,39.30
2018-03-19T19:03:32.814Z,36.10
2018-03-19T19:06:02.700Z,33.43
2018-03-19T19:08:31.803Z,31.13
2018-03-19T19:11:00.920Z,31.77
2018-03-19T19:13:30.019Z,30.53
2018-03-19T19:15:59.159Z,40.53
2018-03-19T19:18:29.027Z,33.97
2018-03-19T19:20:58.146Z,37.33
2018-03-19T19:23:27.256Z,32.57
2018-03-19T19:25:57.144Z,51.40
2018-03-19T19:28:26.287Z,35.63
2018-03-19T19:30:56.177Z,34.13
2018-03-19T19:33:25.287Z,32.77
2018-03-19T19:35:55.170Z,34.37
2018-03-19T19:38:24.277Z,34.13
2018-03-19T19:40:53.411Z,32.23
2018-03-19T19:43:22.524Z,38.53
2018-03-19T19:45:51.640Z,30.90
2018-03-19T19:48:20.062Z,40.43
2018-03-19T19:50:49.024Z,30.97
2018-03-19T19:53:18.156Z,32.97
2018-03-19T19:55:48.053Z,45.87
2018-03-19T19:58:18.562Z,40.27
2018-03-19T20:00:47.679Z,39.97
2018-03-19T20:03:16.804Z,51.43
2018-03-19T20:05:46.699Z,44.90
2018-03-19T20:08:15.806Z,41.63
2018-03-19T20:10:45.674Z,44.07
2018-03-19T20:13:15.535Z,54.67
2018-03-19T20:15:44.678Z,50.23
2018-03-19T20:18:13.795Z,39.73
2018-03-19T20:20:42.928Z,34.80
2018-03-19T20:23:12.844Z,49.77
2018-03-19T20:25:42.759Z,47.07
2018-03-19T20:28:13.349Z,46.90
2018-03-19T20:30:42.499Z,47.93
2018-03-19T20:33:11.591Z,43.33
2018-03-19T20:35:40.713Z,33.07
2018-03-19T20:38:09.821Z,32.73
2018-03-19T20:40:38.957Z,34.33
2018-03-19T20:43:08.065Z,35.83
2018-03-19T20:45:37.209Z,33.20
2018-03-19T20:48:06.303Z,30.97
2018-03-19T20:50:35.454Z,32.53
2018-03-19T20:53:05.350Z,38.87
2018-03-19T20:55:34.451Z,42.60
2018-03-19T20:58:04.414Z,36.70
2018-03-19T21:00:33.542Z,34.33
2018-03-19T21:03:02.710Z,32.33
2018-03-19T21:05:31.811Z,43.70
2018-03-19T21:08:01.714Z,33.37
2018-03-19T21:10:30.862Z,35.33
2018-03-19T21:12:59.967Z,42.63
2018-03-19T21:15:29.070Z,33.23
2018-03-19T21:17:58.957Z,31.90
2018-03-19T21:20:28.071Z,36.63
2018-03-19T21:22:58.014Z,32.93
2018-03-19T21:25:27.104Z,33.70
2018-03-19T21:27:56.214Z,35.80
2018-03-19T21:30:25.356Z,41.97
2018-03-19T21:32:54.462Z,46.30
2018-03-19T21:35:23.564Z,44.37
2018-03-19T21:37:52.665Z,42.90
2018-03-19T21:40:22.543Z,46.90
2018-03-19T21:42:51.627Z,45.40
2018-03-19T21:45:20.737Z,42.10
2018-03-19T21:47:49.872Z,37.83
2018-03-19T21:50:18.982Z,44.70
2018-03-19T21:52:48.108Z,43.93
2018-03-19T21:55:17.218Z,36.43
2018-03-19T21:57:46.346Z,36.87
2018-03-19T22:00:15.450Z,35.33
2018-03-19T22:02:45.366Z,46.20
2018-03-19T22:05:14.442Z,41.77
2018-03-19T22:07:43.539Z,43.73
2018-03-19T22:10:12.673Z,41.27
2018-03-19T22:12:42.526Z,37.17
2018-03-19T22:15:11.639Z,36.77
2018-03-19T22:17:40.741Z,39.17
2018-03-19T22:20:09.842Z,41.30
2018-03-19T22:22:38.977Z,48.00
2018-03-19T22:25:08.088Z,36.20
2018-03-19T22:27:37.192Z,44.70
2018-03-19T22:30:06.278Z,39.17
2018-03-19T22:32:35.385Z,38.07
2018-03-19T22:35:04.511Z,39.17
2018-03-19T22:37:33.615Z,32.33
2018-03-19T22:40:02.706Z,37.07
2018-03-19T22:42:31.815Z,37.97
2018-03-19T22:45:01.676Z,27.90
2018-03-19T22:47:30.780Z,30.20
2018-03-19T22:49:59.881Z,34.93
2018-03-19T22:52:28.999Z,29.70
2018-03-19T22:54:58.093Z,27.83
2018-03-19T22:57:27.182Z,33.90
2018-03-19T22:59:56.303Z,33.57
2018-03-19T23:02:25.401Z,33.87
2018-03-19T23:18:35.213Z,32.63
2018-03-19T23:21:04.311Z,35.17
2018-03-19T23:23:33.418Z,35.53
2018-03-19T23:26:02.535Z,30.70
2018-03-19T23:28:32.382Z,32.60
2018-03-19T23:31:01.506Z,34.13
2018-03-19T23:33:30.635Z,30.70
2018-03-19T23:35:59.699Z,32.70
2018-03-19T23:38:28.795Z,35.70
2018-03-19T23:40:58.664Z,33.33
2018-03-19T23:43:27.764Z,39.07
2018-03-19T23:45:56.856Z,36.43
2018-03-19T23:48:25.943Z,30.00
2018-03-19T23:50:56.062Z,36.43
2018-03-19T23:53:25.930Z,35.23
2018-03-19T23:55:55.051Z,38.00
2018-03-19T23:58:24.173Z,31.83
